createdAt,value
2023-05-18T00:00:04.297Z,98207.88
2023-05-18T00:02:31.984Z,98211.14
2023-05-18T00:05:02.393Z,98214.63
2023-05-18T00:07:34.330Z,98217.30
2023-05-18T00:10:04.013Z,98219.31
2023-05-18T00:12:31.048Z,98216.48
2023-05-18T00:14:57.954Z,98216.59
2023-05-18T00:17:25.058Z,98208.52
2023-05-18T00:19:52.051Z,98207.12
2023-05-18T00:22:19.228Z,98206.58
2023-05-18T00:24:46.778Z,98208.53
2023-05-18T00:27:13.886Z,98208.27
2023-05-18T00:29:40.824Z,98216.38
2023-05-18T00:32:08.205Z,98218.61
2023-05-18T00:34:37.453Z,98219.77
2023-05-18T00:37:04.528Z,98218.73
2023-05-18T00:39:31.481Z,98218.55
2023-05-18T00:41:58.605Z,98222.86
2023-05-18T00:44:25.800Z,98227.71
2023-05-18T00:46:52.716Z,98227.77
2023-05-18T00:49:19.742Z,98230.42
2023-05-18T00:51:47.055Z,98230.06
2023-05-18T00:54:14.096Z,98227.98
2023-05-18T00:56:46.390Z,98222.92
2023-05-18T00:59:13.583Z,98226.41
2023-05-18T01:01:47.034Z,98228.96
2023-05-18T01:04:16.768Z,98227.98
2023-05-18T01:06:43.972Z,98230.54
2023-05-18T01:09:11.963Z,98232.83
2023-05-18T01:11:57.716Z,98231.70
2023-05-18T01:14:37.541Z,98235.56
2023-05-18T01:17:50.287Z,98235.55
2023-05-18T01:20:37.953Z,98240.95
2023-05-18T01:23:30.044Z,98237.85
2023-05-18T01:25:57.158Z,98237.35
2023-05-18T01:28:28.595Z,98240.08
2023-05-18T01:30:56.056Z,98245.13
2023-05-18T01:33:24.790Z,98244.44
2023-05-18T01:35:51.998Z,98246.45
2023-05-18T01:38:20.872Z,98248.03
2023-05-18T01:41:01.663Z,98250.64
2023-05-18T01:43:38.397Z,98255.30
2023-05-18T01:46:33.468Z,98257.55
2023-05-18T01:49:05.011Z,98258.98
2023-05-18T01:51:34.071Z,98264.15
2023-05-18T01:54:03.889Z,98263.77
2023-05-18T01:56:30.921Z,98263.38
2023-05-18T01:58:58.043Z,98266.65
2023-05-18T02:01:25.136Z,98269.50
2023-05-18T02:03:52.227Z,98270.03
2023-05-18T02:06:19.404Z,98274.55
2023-05-18T02:08:46.278Z,98271.98
2023-05-18T02:11:13.275Z,98271.27
2023-05-18T02:13:40.733Z,98276.68
2023-05-18T02:16:08.795Z,98274.34
2023-05-18T02:20:18.781Z,98276.41
2023-05-18T02:22:46.571Z,98278.51
2023-05-18T02:25:13.542Z,98278.51
2023-05-18T02:27:40.661Z,98282.64
2023-05-18T02:30:09.066Z,98283.77
2023-05-18T02:32:39.394Z,98285.93
2023-05-18T02:35:07.259Z,98282.14
2023-05-18T02:37:39.937Z,98282.41
2023-05-18T02:40:10.641Z,98282.86
2023-05-18T02:42:37.625Z,98286.28
2023-05-18T02:45:05.287Z,98287.41
2023-05-18T02:47:33.123Z,98290.50
2023-05-18T02:50:00.196Z,98293.48
2023-05-18T02:52:27.831Z,98297.37
2023-05-18T02:54:56.419Z,98303.70
2023-05-18T02:57:34.087Z,98307.26
2023-05-18T03:00:11.876Z,98315.98
2023-05-18T03:02:40.514Z,98315.73
2023-05-18T03:05:08.003Z,98317.73
2023-05-18T03:07:34.885Z,98319.23
2023-05-18T03:10:03.841Z,98321.50
2023-05-18T03:12:31.464Z,98323.48
2023-05-18T03:14:58.399Z,98328.79
2023-05-18T03:17:25.410Z,98333.05
2023-05-18T03:19:52.810Z,98338.15
2023-05-18T03:22:19.720Z,98344.95
2023-05-18T03:24:46.705Z,98344.17
2023-05-18T03:27:20.526Z,98342.18
2023-05-18T03:29:47.515Z,98344.14
2023-05-18T03:32:14.482Z,98350.97
2023-05-18T03:34:41.508Z,98359.67
2023-05-18T03:37:08.690Z,98359.16
2023-05-18T03:39:35.945Z,98362.36
2023-05-18T03:42:02.991Z,98364.91
2023-05-18T03:44:31.407Z,98370.65
2023-05-18T03:46:58.371Z,98370.94
2023-05-18T03:49:25.260Z,98369.45
2023-05-18T03:51:54.532Z,98372.59
2023-05-18T03:54:21.547Z,98373.00
2023-05-18T03:56:48.523Z,98376.57
2023-05-18T03:59:15.557Z,98378.09
2023-05-18T04:02:03.161Z,98380.13
2023-05-18T04:04:31.094Z,98381.91
2023-05-18T04:06:58.202Z,98380.66
2023-05-18T04:09:25.139Z,98385.19
2023-05-18T04:11:52.177Z,98381.88
2023-05-18T04:14:21.066Z,98383.73
2023-05-18T04:16:48.186Z,98388.37
2023-05-18T04:19:16.033Z,98388.02
2023-05-18T04:21:43.839Z,98396.48
2023-05-18T04:24:14.669Z,98394.68
2023-05-18T04:26:42.690Z,98396.34
2023-05-18T04:29:11.036Z,98398.27
2023-05-18T04:31:38.138Z,98401.84
2023-05-18T04:34:07.553Z,98403.57
2023-05-18T04:36:35.378Z,98405.46
2023-05-18T04:39:05.553Z,98404.24
2023-05-18T04:41:34.228Z,98408.83
2023-05-18T04:44:02.175Z,98417.29
2023-05-18T04:46:34.138Z,98421.77
2023-05-18T04:49:02.358Z,98427.88
2023-05-18T04:51:34.806Z,98433.02
2023-05-18T04:54:03.531Z,98435.70
2023-05-18T04:56:30.586Z,98437.98
2023-05-18T04:58:59.631Z,98439.85
2023-05-18T05:01:27.891Z,98440.81
2023-05-18T05:03:55.576Z,98444.29
2023-05-18T05:06:23.905Z,98444.36
2023-05-18T05:08:50.947Z,98440.77
2023-05-18T05:11:17.850Z,98440.42
2023-05-18T05:13:44.964Z,98440.68
2023-05-18T05:16:12.133Z,98442.17
2023-05-18T05:18:40.373Z,98445.70
2023-05-18T05:21:07.432Z,98449.70
2023-05-18T05:23:34.964Z,98449.50
2023-05-18T05:26:02.756Z,98460.64
2023-05-18T05:28:29.879Z,98462.42
2023-05-18T05:30:56.874Z,98463.38
2023-05-18T05:33:23.886Z,98466.81
2023-05-18T05:35:51.216Z,98467.10
2023-05-18T05:38:18.147Z,98467.59
2023-05-18T05:40:45.122Z,98467.11
2023-05-18T05:43:13.017Z,98466.20
2023-05-18T05:45:43.980Z,98466.65
2023-05-18T05:48:13.722Z,98467.89
2023-05-18T05:50:41.318Z,98469.32
2023-05-18T05:53:08.261Z,98471.10
2023-05-18T05:55:41.453Z,98473.64
2023-05-18T05:58:12.510Z,98476.70
2023-05-18T06:00:40.897Z,98481.23
2023-05-18T06:03:08.601Z,98480.21
2023-05-18T06:05:39.507Z,98484.56
2023-05-18T06:08:09.381Z,98484.11
2023-05-18T06:10:36.504Z,98486.20
2023-05-18T06:13:04.229Z,98491.84
2023-05-18T06:15:38.896Z,98498.41
2023-05-18T06:18:06.035Z,98502.55
2023-05-18T06:20:33.276Z,98505.51
2023-05-18T06:23:03.870Z,98504.80
2023-05-18T06:25:59.748Z,98508.09
2023-05-18T06:28:47.016Z,98512.37
2023-05-18T06:31:33.608Z,98517.56
2023-05-18T06:34:13.062Z,98518.38
2023-05-18T06:36:40.979Z,98516.42
2023-05-18T06:39:10.842Z,98519.56
2023-05-18T06:41:37.813Z,98521.84
2023-05-18T06:44:06.453Z,98526.70
2023-05-18T06:46:37.374Z,98530.27
2023-05-18T06:49:23.204Z,98534.21
2023-05-18T06:51:51.010Z,98534.99
2023-05-18T06:54:18.017Z,98535.35
2023-05-18T06:56:47.292Z,98541.23
2023-05-18T06:59:17.758Z,98547.77
2023-05-18T07:01:44.875Z,98550.80
2023-05-18T07:04:16.477Z,98556.20
2023-05-18T07:06:43.741Z,98560.67
2023-05-18T07:09:15.214Z,98561.86
2023-05-18T07:11:42.219Z,98565.93
2023-05-18T07:14:09.662Z,98571.45
2023-05-18T07:16:37.233Z,98572.11
2023-05-18T07:19:05.157Z,98575.40
2023-05-18T07:21:33.414Z,98578.15
2023-05-18T07:24:02.365Z,98577.90
2023-05-18T07:26:30.079Z,98579.89
2023-05-18T07:28:57.014Z,98581.59
2023-05-18T07:31:24.242Z,98580.69
2023-05-18T07:33:51.435Z,98589.15
2023-05-18T07:36:18.323Z,98589.60
2023-05-18T07:38:45.297Z,98586.80
2023-05-18T07:41:12.400Z,98589.48
2023-05-18T07:43:39.503Z,98591.25
2023-05-18T07:46:07.102Z,98592.98
2023-05-18T07:48:35.406Z,98597.94
2023-05-18T07:51:02.377Z,98600.17
2023-05-18T07:53:29.437Z,98601.68
2023-05-18T07:55:57.300Z,98600.77
2023-05-18T07:58:24.280Z,98604.88
2023-05-18T08:00:52.102Z,98603.63
2023-05-18T08:03:19.594Z,98603.14
2023-05-18T08:05:46.727Z,98604.88
2023-05-18T08:08:18.378Z,98608.11
2023-05-18T08:18:39.021Z,98613.44
2023-05-18T08:21:10.957Z,98610.62
2023-05-18T08:23:39.028Z,98608.83
2023-05-18T08:26:06.353Z,98605.58
2023-05-18T08:28:33.779Z,98605.02
2023-05-18T08:31:05.611Z,98605.50
2023-05-18T08:33:34.051Z,98603.97
2023-05-18T08:36:01.267Z,98603.97
2023-05-18T08:38:28.239Z,98604.13
2023-05-18T08:41:01.987Z,98605.20
2023-05-18T08:43:44.320Z,98606.86
2023-05-18T08:46:17.368Z,98606.48
2023-05-18T08:48:45.083Z,98605.98
2023-05-18T08:51:14.381Z,98607.27
2023-05-18T08:54:40.874Z,98608.38
2023-05-18T08:57:11.629Z,98609.36
2023-05-18T09:00:47.474Z,98611.26
2023-05-18T09:03:15.689Z,98607.74
2023-05-18T09:05:42.872Z,98604.95
2023-05-18T09:08:10.875Z,98607.73
2023-05-18T09:10:39.604Z,98604.95
2023-05-18T09:13:08.154Z,98607.23
2023-05-18T09:15:36.790Z,98605.37
2023-05-18T09:18:04.791Z,98608.89
2023-05-18T09:20:32.268Z,98608.90
2023-05-18T09:22:59.951Z,98607.20
2023-05-18T09:25:31.415Z,98604.70
2023-05-18T09:27:59.657Z,98601.80
2023-05-18T09:30:26.669Z,98604.77
2023-05-18T09:32:53.799Z,98603.66
2023-05-18T09:35:23.289Z,98603.69
2023-05-18T09:37:55.727Z,98601.34
2023-05-18T09:40:23.043Z,98604.17
2023-05-18T09:42:50.097Z,98602.45
2023-05-18T09:45:23.812Z,98603.38
2023-05-18T09:47:51.571Z,98606.20
2023-05-18T09:50:22.364Z,98606.13
2023-05-18T09:52:49.518Z,98606.35
2023-05-18T09:55:17.396Z,98612.43
2023-05-18T09:57:48.184Z,98616.30
2023-05-18T10:00:15.819Z,98620.25
2023-05-18T10:02:48.919Z,98624.21
2023-05-18T10:05:36.740Z,98623.49
2023-05-18T10:08:04.280Z,98624.48
2023-05-18T10:10:35.297Z,98624.66
2023-05-18T10:13:02.369Z,98624.95
2023-05-18T10:15:29.573Z,98622.08
2023-05-18T10:17:57.578Z,98624.75
2023-05-18T10:20:27.651Z,98629.08
2023-05-18T10:22:59.112Z,98626.91
2023-05-18T10:25:26.814Z,98632.52
2023-05-18T10:27:58.343Z,98633.64
2023-05-18T10:38:07.981Z,98636.53
2023-05-18T10:40:35.027Z,98643.27
2023-05-18T10:43:03.722Z,98647.79
2023-05-18T10:45:33.921Z,98644.84
2023-05-18T10:48:01.822Z,98652.70
2023-05-18T10:50:32.854Z,98652.07
2023-05-18T10:53:04.540Z,98657.88
2023-05-18T10:55:32.758Z,98655.71
2023-05-18T10:58:07.995Z,98656.06
2023-05-18T11:00:35.652Z,98660.94
2023-05-18T11:03:02.683Z,98658.09
2023-05-18T11:05:31.252Z,98655.40
2023-05-18T11:08:06.887Z,98654.05
2023-05-18T11:10:42.868Z,98656.79
2023-05-18T11:13:11.589Z,98663.52
2023-05-18T11:16:06.309Z,98664.55
2023-05-18T11:18:49.984Z,98668.34
2023-05-18T11:21:23.497Z,98668.82
2023-05-18T11:24:28.202Z,98667.21
2023-05-18T11:27:00.413Z,98668.59
2023-05-18T11:29:31.169Z,98669.35
2023-05-18T11:32:05.292Z,98671.84
2023-05-18T11:34:45.049Z,98673.85
2023-05-18T11:37:16.302Z,98676.35
2023-05-18T11:40:00.958Z,98677.52
2023-05-18T11:42:33.638Z,98678.00
2023-05-18T11:45:10.561Z,98681.16
2023-05-18T11:47:38.231Z,98675.69
2023-05-18T11:50:09.335Z,98677.86
2023-05-18T11:52:47.213Z,98684.75
2023-05-18T11:55:15.310Z,98683.56
2023-05-18T11:57:46.467Z,98689.30
2023-05-18T12:00:14.014Z,98685.64
2023-05-18T12:02:46.162Z,98690.59
2023-05-18T12:05:14.000Z,98691.73
2023-05-18T12:07:41.756Z,98693.85
2023-05-18T12:10:12.950Z,98699.33
2023-05-18T12:12:40.273Z,98697.98
2023-05-18T12:15:08.653Z,98701.09
2023-05-18T12:17:40.402Z,98703.09
2023-05-18T12:20:12.030Z,98697.90
2023-05-18T12:22:39.967Z,98697.30
2023-05-18T12:25:07.977Z,98699.72
2023-05-18T12:27:44.859Z,98699.50
2023-05-18T12:30:13.947Z,98695.85
2023-05-18T12:32:45.105Z,98692.21
2023-05-18T12:35:12.382Z,98692.08
2023-05-18T12:37:46.373Z,98691.66
2023-05-18T12:40:14.369Z,98694.47
2023-05-18T12:42:52.002Z,98698.23
2023-05-18T12:45:18.913Z,98697.17
2023-05-18T12:47:46.002Z,98692.77
2023-05-18T12:50:13.009Z,98694.73
2023-05-18T12:52:39.935Z,98695.98
2023-05-18T12:55:10.677Z,98692.05
2023-05-18T12:57:41.633Z,98696.64
2023-05-18T13:00:10.786Z,98701.00
2023-05-18T13:02:38.031Z,98700.18
2023-05-18T13:05:10.128Z,98697.20
2023-05-18T13:07:41.809Z,98695.30
2023-05-18T13:10:10.312Z,98695.39
2023-05-18T13:12:50.766Z,98697.63
2023-05-18T13:15:19.192Z,98694.36
2023-05-18T13:17:59.244Z,98698.10
2023-05-18T13:20:37.025Z,98700.77
2023-05-18T13:23:07.244Z,98701.56
2023-05-18T13:25:34.275Z,98700.96
2023-05-18T13:28:04.549Z,98698.24
2023-05-18T13:30:32.317Z,98702.26
2023-05-18T13:32:59.825Z,98703.11
2023-05-18T13:35:42.211Z,98701.73
2023-05-18T13:38:10.171Z,98698.75
2023-05-18T13:40:37.789Z,98696.70
2023-05-18T13:43:06.207Z,98701.34
2023-05-18T13:45:33.423Z,98699.48
2023-05-18T13:48:00.783Z,98702.04
2023-05-18T13:50:27.853Z,98703.81
2023-05-18T13:52:54.766Z,98702.82
2023-05-18T13:55:22.069Z,98696.79
2023-05-18T13:57:53.773Z,98696.06
2023-05-18T14:00:21.581Z,98694.80
2023-05-18T14:02:48.584Z,98697.61
2023-05-18T14:05:16.458Z,98696.53
2023-05-18T14:07:43.579Z,98698.10
2023-05-18T14:10:11.576Z,98702.50
2023-05-18T14:12:38.620Z,98702.27
2023-05-18T14:15:06.088Z,98706.98
2023-05-18T14:17:33.066Z,98702.23
2023-05-18T14:20:00.154Z,98702.95
2023-05-18T14:22:27.576Z,98705.25
2023-05-18T14:24:54.632Z,98708.11
2023-05-18T14:27:21.562Z,98718.04
2023-05-18T14:29:49.009Z,98723.41
2023-05-18T14:32:16.034Z,98727.25
2023-05-18T14:37:40.963Z,98718.27
2023-05-18T14:40:08.578Z,98722.45
2023-05-18T14:42:37.411Z,98721.95
2023-05-18T14:45:05.185Z,98720.98
2023-05-18T14:47:32.326Z,98721.42
2023-05-18T14:50:02.449Z,98720.66
2023-05-18T14:52:29.443Z,98716.16
2023-05-18T14:54:56.403Z,98719.54
2023-05-18T14:57:25.944Z,98715.59
2023-05-18T14:59:53.710Z,98719.79
2023-05-18T15:02:20.695Z,98726.86
2023-05-18T15:04:47.657Z,98724.88
2023-05-18T15:07:14.576Z,98723.06
2023-05-18T15:09:41.565Z,98723.83
2023-05-18T15:12:08.629Z,98723.16
2023-05-18T15:14:36.049Z,98722.24
2023-05-18T15:17:03.198Z,98725.27
2023-05-18T15:19:30.467Z,98727.94
2023-05-18T15:21:57.516Z,98724.88
2023-05-18T15:24:26.467Z,98727.96
2023-05-18T15:26:53.434Z,98736.55
2023-05-18T15:29:20.407Z,98737.17
2023-05-18T15:31:51.234Z,98736.05
2023-05-18T15:34:18.507Z,98736.81
2023-05-18T15:36:45.477Z,98740.46
2023-05-18T15:39:12.428Z,98747.65
2023-05-18T15:41:39.366Z,98745.84
2023-05-18T15:44:06.359Z,98749.29
2023-05-18T15:46:35.962Z,98752.36
2023-05-18T15:49:02.975Z,98753.24
2023-05-18T15:51:31.311Z,98763.73
2023-05-18T15:53:58.287Z,98768.80
2023-05-18T15:56:28.216Z,98771.27
2023-05-18T15:58:57.533Z,98772.08
2023-05-18T16:01:24.615Z,98774.98
2023-05-18T16:03:51.737Z,98777.85
2023-05-18T16:06:18.698Z,98778.03
2023-05-18T16:08:48.600Z,98780.88
2023-05-18T16:11:15.506Z,98782.27
2023-05-18T16:13:42.505Z,98784.89
2023-05-18T16:16:21.283Z,98783.52
2023-05-18T16:18:50.124Z,98788.39
2023-05-18T16:21:18.701Z,98790.40
2023-05-18T16:23:50.210Z,98798.95
2023-05-18T16:26:18.136Z,98801.86
2023-05-18T16:28:47.283Z,98806.08
2023-05-18T16:31:15.025Z,98808.55
2023-05-18T16:33:42.265Z,98811.27
2023-05-18T16:36:10.000Z,98817.58
2023-05-18T16:38:42.620Z,98821.06
2023-05-18T16:41:09.758Z,98823.89
2023-05-18T16:43:37.920Z,98823.09
2023-05-18T16:46:08.326Z,98821.67
2023-05-18T16:48:36.145Z,98824.04
2023-05-18T16:51:07.232Z,98824.62
2023-05-18T16:53:35.248Z,98825.29
2023-05-18T16:56:03.151Z,98828.65
2023-05-18T16:58:30.351Z,98818.38
2023-05-18T17:00:58.044Z,98819.61
2023-05-18T17:03:25.355Z,98826.63
2023-05-18T17:06:20.300Z,98827.95
2023-05-18T17:08:57.515Z,98828.84
2023-05-18T17:11:27.894Z,98834.30
2023-05-18T17:14:03.646Z,98846.02
2023-05-18T17:16:33.787Z,98857.15
2023-05-18T17:19:02.753Z,98853.52
2023-05-18T17:21:32.728Z,98863.42
2023-05-18T17:23:59.777Z,98868.96
2023-05-18T17:26:33.973Z,98869.48
2023-05-18T17:29:06.379Z,98867.61
2023-05-18T17:31:35.788Z,98870.79
2023-05-18T17:34:03.473Z,98869.02
2023-05-18T17:36:31.195Z,98865.44
2023-05-18T17:38:58.621Z,98872.21
2023-05-18T17:41:26.499Z,98865.67
2023-05-18T17:43:53.799Z,98863.34
2023-05-18T17:46:20.734Z,98866.13
2023-05-18T17:48:50.610Z,98867.27
2023-05-18T17:51:18.203Z,98868.74
2023-05-18T17:53:46.567Z,98863.36
2023-05-18T17:56:14.219Z,98873.86
2023-05-18T17:58:47.725Z,98879.71
2023-05-18T18:01:15.342Z,98880.77
2023-05-18T18:03:43.696Z,98882.53
2023-05-18T18:06:10.837Z,98881.91
2023-05-18T18:08:42.594Z,98890.45
2023-05-18T18:11:13.476Z,98890.00
2023-05-18T18:13:40.341Z,98894.25
2023-05-18T18:16:07.484Z,98888.03
2023-05-18T18:18:39.133Z,98892.63
2023-05-18T18:21:06.752Z,98894.35
2023-05-18T18:23:42.895Z,98899.73
2023-05-18T18:26:11.831Z,98906.52
2023-05-18T18:28:38.974Z,98908.30
2023-05-18T18:31:06.007Z,98905.99
2023-05-18T18:33:36.473Z,98905.73
2023-05-18T18:36:06.042Z,98904.41
2023-05-18T18:38:34.095Z,98907.38
2023-05-18T18:41:22.535Z,98914.69
2023-05-18T18:43:49.602Z,98915.85
2023-05-18T18:46:17.398Z,98913.45
2023-05-18T18:48:44.984Z,98920.34
2023-05-18T18:51:20.832Z,98923.31
2023-05-18T18:53:47.889Z,98925.35
2023-05-18T18:56:22.884Z,98923.40
2023-05-18T18:58:54.062Z,98924.73
2023-05-18T19:01:21.159Z,98927.77
2023-05-18T19:03:51.141Z,98931.88
2023-05-18T19:06:18.555Z,98934.82
2023-05-18T19:08:45.607Z,98933.30
2023-05-18T19:11:13.028Z,98931.97
2023-05-18T19:13:40.298Z,98937.97
2023-05-18T19:16:07.315Z,98940.48
2023-05-18T19:18:34.264Z,98940.67
2023-05-18T19:21:03.821Z,98943.16
2023-05-18T19:23:33.808Z,98947.28
2023-05-18T19:26:03.654Z,98951.38
2023-05-18T19:28:30.630Z,98952.16
2023-05-18T19:30:57.478Z,98956.88
2023-05-18T19:33:24.539Z,98955.30
2023-05-18T19:35:52.890Z,98954.49
2023-05-18T19:38:19.941Z,98953.85
2023-05-18T19:40:46.916Z,98958.09
2023-05-18T19:43:13.826Z,98954.16
2023-05-18T19:45:40.767Z,98952.95
2023-05-18T19:48:07.944Z,98960.91
2023-05-18T19:50:35.354Z,98961.40
2023-05-18T19:53:02.323Z,98960.70
2023-05-18T19:55:33.388Z,98971.70
2023-05-18T19:58:01.562Z,98973.31
2023-05-18T20:00:29.561Z,98970.48
2023-05-18T20:02:57.549Z,98971.91
2023-05-18T20:05:25.590Z,98974.48
2023-05-18T20:07:52.673Z,98976.05
2023-05-18T20:10:19.821Z,98975.70
2023-05-18T20:12:46.932Z,98977.95
2023-05-18T20:15:13.885Z,98983.05
2023-05-18T20:17:41.394Z,98979.17
2023-05-18T20:20:08.872Z,98974.80
2023-05-18T20:22:35.795Z,98977.93
2023-05-18T20:25:05.897Z,98982.75
2023-05-18T20:27:32.878Z,98983.26
2023-05-18T20:29:59.916Z,98987.96
2023-05-18T20:32:27.302Z,98987.14
2023-05-18T20:34:54.927Z,98986.42
2023-05-18T20:37:24.064Z,98988.33
2023-05-18T20:39:51.640Z,98984.11
2023-05-18T20:42:22.088Z,98985.80
2023-05-18T20:44:52.672Z,98987.27
2023-05-18T20:47:20.870Z,98989.21
2023-05-18T20:49:48.268Z,98994.65
2023-05-18T20:52:15.213Z,98992.13
2023-05-18T20:54:43.052Z,98990.06
2023-05-18T20:57:10.006Z,98993.82
2023-05-18T20:59:37.055Z,98991.91
2023-05-18T21:02:04.958Z,98990.47
2023-05-18T21:04:32.070Z,98985.77
2023-05-18T21:06:58.936Z,98991.73
2023-05-18T21:09:25.839Z,98995.10
2023-05-18T21:11:52.730Z,98995.93
2023-05-18T21:14:21.028Z,98984.73
2023-05-18T21:16:48.034Z,98984.95
2023-05-18T21:19:15.002Z,98985.55
2023-05-18T21:21:42.921Z,98992.34
2023-05-18T21:24:09.911Z,98989.89
2023-05-18T21:26:36.807Z,98988.51
2023-05-18T21:29:03.764Z,98989.14
2023-05-18T21:31:30.690Z,98990.95
2023-05-18T21:33:57.574Z,98991.54
2023-05-18T21:36:33.937Z,98991.67
2023-05-18T21:39:01.834Z,98991.66
2023-05-18T21:41:28.841Z,98989.85
2023-05-18T21:43:57.815Z,98988.48
2023-05-18T21:46:25.077Z,98984.98
2023-05-18T21:48:52.094Z,98987.08
2023-05-18T21:51:19.017Z,98989.11
2023-05-18T21:53:45.980Z,98988.70
2023-05-18T21:56:13.010Z,98986.04
2023-05-18T21:58:39.943Z,98988.80
2023-05-18T22:01:06.890Z,98986.80
2023-05-18T22:03:33.793Z,98988.23
2023-05-18T22:06:00.766Z,98989.94
2023-05-18T22:08:27.958Z,98993.10
2023-05-18T22:10:54.816Z,98994.84
2023-05-18T22:13:21.721Z,98995.67
2023-05-18T22:15:48.783Z,98995.52
2023-05-18T22:18:15.745Z,98993.66
2023-05-18T22:20:42.681Z,98994.39
2023-05-18T22:23:09.602Z,98997.69
2023-05-18T22:25:36.523Z,98991.48
2023-05-18T22:28:03.442Z,98993.05
2023-05-18T22:30:30.657Z,98995.08
2023-05-18T22:32:58.728Z,98999.20
2023-05-18T22:35:25.688Z,98999.13
2023-05-18T22:37:52.577Z,98996.35
2023-05-18T22:40:19.495Z,98994.59
2023-05-18T22:42:46.429Z,98998.86
2023-05-18T22:45:14.097Z,98995.88
2023-05-18T22:47:41.120Z,98994.36
2023-05-18T22:50:08.867Z,98994.29
2023-05-18T22:52:36.824Z,98995.70
2023-05-18T22:55:05.615Z,98997.40
2023-05-18T22:57:32.501Z,98991.58
2023-05-18T22:59:59.511Z,98987.73
2023-05-18T23:02:27.335Z,98982.13
2023-05-18T23:04:54.321Z,98981.05
2023-05-18T23:07:22.118Z,98981.77
2023-05-18T23:09:48.984Z,98980.52
2023-05-18T23:12:15.857Z,98982.27
2023-05-18T23:14:44.707Z,98979.33
2023-05-18T23:17:11.675Z,98976.65
2023-05-18T23:19:39.433Z,98978.30
2023-05-18T23:22:06.467Z,98984.70
2023-05-18T23:24:33.309Z,98982.92
2023-05-18T23:27:00.185Z,98984.48
2023-05-18T23:29:27.241Z,98978.27
2023-05-18T23:31:54.263Z,98981.64
2023-05-18T23:34:21.508Z,98983.68
2023-05-18T23:36:48.626Z,98985.73
2023-05-18T23:39:15.472Z,98984.81
2023-05-18T23:41:42.360Z,98977.33
2023-05-18T23:44:09.690Z,98975.72
2023-05-18T23:46:37.004Z,98977.56
2023-05-18T23:49:04.616Z,98975.03
2023-05-18T23:51:33.490Z,98970.88
2023-05-18T23:54:00.679Z,98973.23
2023-05-18T23:56:28.359Z,98973.65
2023-05-18T23:58:55.439Z,98975.26
